createdAt,value
2023-05-02T00:00:00.831Z,38
2023-05-02T00:05:00.005Z,38
2023-05-02T00:09:59.849Z,38
2023-05-02T00:14:59.997Z,39
2023-05-02T00:20:00.097Z,39
2023-05-02T00:24:59.858Z,39
2023-05-02T00:30:00.622Z,39
2023-05-02T00:34:59.877Z,39
2023-05-02T00:40:00.039Z,39
2023-05-02T00:44:59.869Z,38
2023-05-02T00:50:00.254Z,38
2023-05-02T00:54:59.598Z,38
2023-05-02T01:00:00.375Z,38
2023-05-02T01:05:04.124Z,39
2023-05-02T01:10:03.183Z,39
2023-05-02T01:15:27.353Z,39
2023-05-02T01:20:02.888Z,39
2023-05-02T01:25:03.239Z,39
2023-05-02T01:30:00.027Z,39
2023-05-02T01:35:00.803Z,39
2023-05-02T01:39:59.647Z,39
2023-05-02T01:44:59.661Z,39
2023-05-02T01:50:01.105Z,39
2023-05-02T01:54:59.858Z,39
2023-05-02T02:00:02.024Z,39
2023-05-02T02:05:00.406Z,38
2023-05-02T02:09:59.945Z,38
2023-05-02T02:15:02.043Z,38
2023-05-02T02:20:02.366Z,38
2023-05-02T02:24:59.431Z,37
2023-05-02T02:30:00.017Z,37
2023-05-02T02:34:59.955Z,37
2023-05-02T02:40:03.599Z,37
2023-05-02T02:44:59.304Z,89
2023-05-02T02:49:59.727Z,88.6
2023-05-02T02:54:59.242Z,87.2
2023-05-02T03:00:02.175Z,87.1
2023-05-02T03:05:01.059Z,87.6
2023-05-02T03:10:01.910Z,88.6
2023-05-02T03:15:06.570Z,87.3
2023-05-02T03:19:59.955Z,87
2023-05-02T03:24:59.631Z,84.6
2023-05-02T03:30:00.112Z,84
2023-05-02T03:34:59.208Z,84
2023-05-02T03:39:59.839Z,84.1
2023-05-02T03:44:59.737Z,82.9
2023-05-02T03:49:59.901Z,81.7
2023-05-02T03:55:00.810Z,80.6
2023-05-02T03:59:59.753Z,79.4
2023-05-02T04:04:59.661Z,78.8
2023-05-02T04:09:59.835Z,78.6
2023-05-02T04:14:59.313Z,79
2023-05-02T04:20:00.033Z,79.9
2023-05-02T04:24:59.277Z,79.8
2023-05-02T04:29:59.071Z,82.2
2023-05-02T04:34:59.452Z,83
2023-05-02T04:39:59.849Z,83.8
2023-05-02T04:44:59.437Z,84.2
2023-05-02T04:49:59.159Z,85.4
2023-05-02T04:54:59.466Z,86.2
2023-05-02T04:59:59.568Z,87
2023-05-02T05:05:00.203Z,87
2023-05-02T05:09:59.530Z,87
2023-05-02T05:14:59.152Z,86.8
2023-05-02T05:19:59.379Z,87.2
2023-05-02T05:24:59.439Z,86.8
2023-05-02T05:29:59.369Z,86.7
2023-05-02T05:34:59.331Z,84.2
2023-05-02T05:39:59.764Z,85.3
2023-05-02T05:44:58.979Z,84.5
2023-05-02T05:49:59.510Z,83.6
2023-05-02T05:54:59.163Z,81.1
2023-05-02T05:59:59.597Z,81
2023-05-02T06:04:59.141Z,80.2
2023-05-02T06:09:59.205Z,78.8
2023-05-02T06:14:59.062Z,77.4
2023-05-02T06:19:59.342Z,77.4
2023-05-02T06:24:59.041Z,76.9
2023-05-02T06:29:59.293Z,76.3
2023-05-02T06:34:58.996Z,73.1
2023-05-02T06:39:59.202Z,70
2023-05-02T06:44:59.292Z,68.4
2023-05-02T06:49:59.274Z,70
2023-05-02T06:54:58.694Z,72.9
2023-05-02T06:59:59.154Z,75.2
2023-05-02T07:04:58.949Z,76.6
2023-05-02T07:09:59.296Z,78.6
2023-05-02T07:14:58.973Z,78.4
2023-05-02T07:19:59.123Z,78.3
2023-05-02T07:25:00.320Z,77.9
2023-05-02T07:29:58.916Z,75.6
2023-05-02T07:34:58.866Z,75.4
2023-05-02T07:39:59.242Z,75.4
2023-05-02T07:44:59.095Z,75
2023-05-02T07:49:59.427Z,73.9
2023-05-02T07:54:58.788Z,72.1
2023-05-02T07:59:59.454Z,69.8
2023-05-02T08:04:59.253Z,68.5
2023-05-02T08:09:59.261Z,69.3
2023-05-02T08:14:58.669Z,68.8
2023-05-02T08:19:59.101Z,69.5
2023-05-02T08:24:58.705Z,68.8
2023-05-02T08:30:00.771Z,69.7
2023-05-02T08:34:58.812Z,68.1
2023-05-02T08:39:59.484Z,66.5
2023-05-02T08:44:59.686Z,66.5
2023-05-02T08:49:59.299Z,66.8
2023-05-02T08:55:00.376Z,65.8
2023-05-02T08:59:58.970Z,63.8
2023-05-02T09:05:00.177Z,65.7
2023-05-02T09:09:58.547Z,63.4
2023-05-02T09:15:14.637Z,61.4
2023-05-02T09:19:59.044Z,59.6
2023-05-02T09:24:59.668Z,57.6
2023-05-02T09:29:58.597Z,56.9
2023-05-02T09:34:58.923Z,55.8
2023-05-02T09:40:06.317Z,55
2023-05-02T09:44:59.032Z,55
2023-05-02T09:49:58.682Z,54.2
2023-05-02T09:54:58.659Z,56.1
2023-05-02T09:59:58.718Z,54.1
2023-05-02T10:04:58.875Z,51.7
2023-05-02T10:09:58.813Z,52.3
2023-05-02T10:14:59.872Z,51.5
2023-05-02T10:20:00.225Z,49.9
2023-05-02T10:24:59.908Z,50.1
2023-05-02T10:30:00.114Z,52
2023-05-02T10:35:02.238Z,52.5
2023-05-02T10:39:58.505Z,51.7
2023-05-02T10:44:59.035Z,52
2023-05-02T10:49:59.236Z,50.1
2023-05-02T10:55:12.536Z,49.5
2023-05-02T10:59:58.471Z,48.8
2023-05-02T11:04:59.514Z,48.5
2023-05-02T11:10:24.980Z,48.2
2023-05-02T11:14:58.721Z,48.7
2023-05-02T11:20:19.240Z,48.3
2023-05-02T11:24:58.859Z,48
2023-05-02T11:29:59.343Z,49.5
2023-05-02T11:34:58.505Z,47.3
2023-05-02T11:40:09.224Z,49.2
2023-05-02T11:44:58.415Z,46.9
2023-05-02T11:49:58.563Z,46.8
2023-05-02T11:54:58.336Z,46.9
2023-05-02T11:59:58.263Z,45.7
2023-05-02T12:04:58.463Z,46.3
2023-05-02T12:09:58.482Z,46.8
2023-05-02T12:15:02.509Z,46.1
2023-05-02T12:19:58.346Z,46.9
2023-05-02T12:24:58.078Z,45.1
2023-05-02T12:29:58.562Z,45.1
2023-05-02T12:34:58.697Z,45.8
2023-05-02T12:39:58.059Z,44.2
2023-05-02T12:44:58.374Z,45.4
2023-05-02T12:49:58.063Z,45.3
2023-05-02T12:55:13.895Z,44.9
2023-05-02T12:59:58.384Z,43.4
2023-05-02T13:04:58.189Z,41.8
2023-05-02T13:09:58.281Z,41.1
2023-05-02T13:14:58.284Z,42.6
2023-05-02T13:20:01.887Z,41.6
2023-05-02T13:24:58.460Z,42
2023-05-02T13:29:58.053Z,42
2023-05-02T13:34:58.290Z,41.1
2023-05-02T13:39:58.137Z,42.9
2023-05-02T13:44:58.398Z,45.3
2023-05-02T13:49:58.111Z,45.1
2023-05-02T13:54:57.724Z,43.5
2023-05-02T13:59:58.236Z,43
2023-05-02T14:04:57.777Z,42.1
2023-05-02T14:09:57.952Z,42.3
2023-05-02T14:14:58.184Z,42.1
2023-05-02T14:19:57.872Z,41.7
2023-05-02T14:24:58.223Z,42.4
2023-05-02T14:29:57.897Z,42.1
2023-05-02T14:34:58.045Z,42.4
2023-05-02T14:39:57.920Z,44.6
2023-05-02T14:44:59.710Z,45.1
2023-05-02T14:49:58.137Z,44.5
2023-05-02T14:54:58.255Z,41.8
2023-05-02T14:59:58.404Z,41.7
2023-05-02T15:04:58.350Z,42.8
2023-05-02T15:09:57.734Z,42.8
2023-05-02T15:14:58.481Z,43.3
2023-05-02T15:19:58.622Z,42.2
2023-05-02T15:24:58.159Z,44.5
2023-05-02T15:29:57.581Z,43.9
2023-05-02T15:34:57.698Z,43.8
2023-05-02T15:39:57.675Z,42.8
2023-05-02T15:44:57.790Z,42.8
2023-05-02T15:49:57.941Z,42.9
2023-05-02T15:54:57.790Z,43.4
2023-05-02T15:59:57.751Z,44.2
2023-05-02T16:04:57.861Z,44.5
2023-05-02T16:09:57.593Z,44.3
2023-05-02T16:14:58.108Z,45
2023-05-02T16:19:57.621Z,45.3
2023-05-02T16:24:57.611Z,45.4
2023-05-02T16:29:57.493Z,44.8
2023-05-02T16:34:57.654Z,46.9
2023-05-02T16:39:58.260Z,46.8
2023-05-02T16:44:57.991Z,46.9
2023-05-02T16:49:58.022Z,48.3
2023-05-02T16:54:57.755Z,48.4
2023-05-02T16:59:57.732Z,48.6
2023-05-02T17:04:57.382Z,49.1
2023-05-02T17:09:57.515Z,48.4
2023-05-02T17:14:57.787Z,50.5
2023-05-02T17:19:57.647Z,50.1
2023-05-02T17:24:57.579Z,51.6
2023-05-02T17:29:57.394Z,52
2023-05-02T17:34:58.885Z,51.9
2023-05-02T17:39:57.500Z,53.2
2023-05-02T17:44:57.524Z,53.5
2023-05-02T17:49:57.173Z,53.2
2023-05-02T17:54:57.212Z,53.9
2023-05-02T17:59:57.899Z,54.1
2023-05-02T18:04:57.733Z,54.3
2023-05-02T18:09:58.027Z,53.8
2023-05-02T18:14:57.596Z,54.9
2023-05-02T18:19:57.251Z,54.5
2023-05-02T18:24:57.642Z,54.6
2023-05-02T18:30:00.843Z,55.4
2023-05-02T18:35:01.396Z,55.7
2023-05-02T18:40:00.642Z,56.3
2023-05-02T18:45:01.535Z,56.3
2023-05-02T18:50:01.176Z,56.3
2023-05-02T18:55:00.564Z,56.3
2023-05-02T19:00:00.997Z,56.3
2023-05-02T19:05:04.055Z,60.2
2023-05-02T19:10:00.708Z,60.9
2023-05-02T19:15:01.027Z,60.5
2023-05-02T19:20:00.749Z,60.4
2023-05-02T19:25:01.293Z,60.7
2023-05-02T19:30:00.666Z,60.9
2023-05-02T19:35:00.965Z,61.1
2023-05-02T19:40:00.606Z,61.9
2023-05-02T19:45:00.691Z,61.2
2023-05-02T19:50:00.420Z,62.8
2023-05-02T19:55:00.568Z,63.3
2023-05-02T20:00:00.797Z,63.6
2023-05-02T20:05:00.251Z,62.6
2023-05-02T20:10:00.606Z,63.1
2023-05-02T20:15:00.633Z,63.5
2023-05-02T20:20:00.657Z,64.3
2023-05-02T20:25:00.655Z,63.9
2023-05-02T20:30:00.741Z,64
2023-05-02T20:35:00.399Z,64.6
2023-05-02T20:40:00.799Z,65.4
2023-05-02T20:45:00.217Z,66.5
2023-05-02T20:50:00.613Z,66.7
2023-05-02T20:55:00.932Z,67.5
2023-05-02T21:00:00.658Z,67.5
2023-05-02T21:05:00.310Z,67.1
2023-05-02T21:10:00.437Z,67.7
2023-05-02T21:15:00.316Z,67.7
2023-05-02T21:20:00.364Z,69.2
2023-05-02T21:25:00.352Z,70
2023-05-02T21:30:00.920Z,69.9
2023-05-02T21:35:00.475Z,70.5
2023-05-02T21:40:01.028Z,70.2
2023-05-02T21:45:00.522Z,68.8
2023-05-02T21:50:00.675Z,70.1
2023-05-02T21:55:00.213Z,70.2
2023-05-02T22:00:00.693Z,70.7
2023-05-02T22:05:00.384Z,71.7
2023-05-02T22:10:00.417Z,71.1
2023-05-02T22:15:00.141Z,71.9
2023-05-02T22:20:00.574Z,71.5
2023-05-02T22:25:00.292Z,69.9
2023-05-02T22:30:01.058Z,71.6
2023-05-02T22:35:00.300Z,72.4
2023-05-02T22:40:00.599Z,72.4
2023-05-02T22:44:59.986Z,71.9
2023-05-02T22:50:00.675Z,72.7
2023-05-02T22:55:00.314Z,72.5
2023-05-02T23:00:00.113Z,73.1
2023-05-02T23:05:00.118Z,73.3
2023-05-02T23:10:00.620Z,73.8
2023-05-02T23:15:00.342Z,73.9
2023-05-02T23:20:00.032Z,74.3
2023-05-02T23:25:00.125Z,74.1
2023-05-02T23:30:00.458Z,73.9
2023-05-02T23:35:00.070Z,74.9
2023-05-02T23:40:00.059Z,74.5
2023-05-02T23:45:00.170Z,74.6
2023-05-02T23:50:00.624Z,75.7
2023-05-02T23:54:59.966Z,76.1
2023-05-02T23:59:59.749Z,77.6
